sensor_id;sensor_type;location;lat;lon;timestamp;pressure;altitude;pressure_sealevel;temperature;humidity
75740;BME280;64357;51.344;6.550;2023-09-08T00:02:10;101276.53;;;19.17;100.00
75740;BME280;64357;51.344;6.550;2023-09-08T00:04:36;101273.66;;;19.12;100.00
75740;BME280;64357;51.344;6.550;2023-09-08T00:07:01;101281.19;;;19.09;100.00
75740;BME280;64357;51.344;6.550;2023-09-08T00:09:27;101259.69;;;18.99;100.00
75740;BME280;64357;51.344;6.550;2023-09-08T00:11:52;101269.47;;;19.03;100.00
75740;BME280;64357;51.344;6.550;2023-09-08T00:14:20;101270.72;;;18.96;100.00
75740;BME280;64357;51.344;6.550;2023-09-08T00:16:48;101270.63;;;18.95;100.00
75740;BME280;64357;51.344;6.550;2023-09-08T00:19:13;101273.78;;;18.90;100.00
75740;BME280;64357;51.344;6.550;2023-09-08T00:21:38;101274.66;;;18.91;100.00
75740;BME280;64357;51.344;6.550;2023-09-08T00:24:04;101271.09;;;18.89;100.00
75740;BME280;64357;51.344;6.550;2023-09-08T00:26:30;101269.16;;;18.86;100.00
75740;BME280;64357;51.344;6.550;2023-09-08T00:28:56;101270.19;;;18.88;100.00
75740;BME280;64357;51.344;6.550;2023-09-08T00:31:21;101264.88;;;18.87;100.00
75740;BME280;64357;51.344;6.550;2023-09-08T00:33:46;101266.00;;;18.90;100.00
75740;BME280;64357;51.344;6.550;2023-09-08T00:36:12;101261.03;;;18.82;100.00
75740;BME280;64357;51.344;6.550;2023-09-08T00:38:37;101264.66;;;18.84;100.00
75740;BME280;64357;51.344;6.550;2023-09-08T00:41:04;101259.25;;;18.81;100.00
75740;BME280;64357;51.344;6.550;2023-09-08T00:43:30;101264.88;;;18.75;100.00
75740;BME280;64357;51.344;6.550;2023-09-08T00:45:58;101253.06;;;18.67;100.00
75740;BME280;64357;51.344;6.550;2023-09-08T00:48:24;101256.56;;;18.79;100.00
75740;BME280;64357;51.344;6.550;2023-09-08T00:50:50;101250.81;;;18.83;100.00
75740;BME280;64357;51.344;6.550;2023-09-08T00:53:16;101261.38;;;18.86;100.00
75740;BME280;64357;51.344;6.550;2023-09-08T00:55:42;101254.88;;;18.80;100.00
75740;BME280;64357;51.344;6.550;2023-09-08T00:58:07;101265.13;;;18.78;100.00
75740;BME280;64357;51.344;6.550;2023-09-08T01:00:32;101252.28;;;18.80;100.00
75740;BME280;64357;51.344;6.550;2023-09-08T01:02:58;101257.69;;;18.83;100.00
75740;BME280;64357;51.344;6.550;2023-09-08T01:05:27;101264.13;;;18.76;100.00
75740;BME280;64357;51.344;6.550;2023-09-08T01:07:52;101256.81;;;18.71;100.00
75740;BME280;64357;51.344;6.550;2023-09-08T01:10:18;101251.84;;;18.74;100.00
75740;BME280;64357;51.344;6.550;2023-09-08T01:12:44;101249.25;;;18.74;100.00
75740;BME280;64357;51.344;6.550;2023-09-08T01:15:09;101255.75;;;18.80;100.00
75740;BME280;64357;51.344;6.550;2023-09-08T01:17:35;101250.25;;;18.76;100.00
75740;BME280;64357;51.344;6.550;2023-09-08T01:20:10;101250.94;;;18.85;100.00
75740;BME280;64357;51.344;6.550;2023-09-08T01:27:55;101253.41;;;18.83;100.00
75740;BME280;64357;51.344;6.550;2023-09-08T01:30:26;101243.97;;;18.84;100.00
75740;BME280;64357;51.344;6.550;2023-09-08T01:32:54;101261.03;;;18.82;100.00
75740;BME280;64357;51.344;6.550;2023-09-08T01:35:19;101237.00;;;18.71;100.00
75740;BME280;64357;51.344;6.550;2023-09-08T01:37:48;101241.59;;;18.75;100.00
75740;BME280;64357;51.344;6.550;2023-09-08T01:40:14;101250.59;;;18.80;100.00
75740;BME280;64357;51.344;6.550;2023-09-08T01:42:40;101251.38;;;18.68;100.00
75740;BME280;64357;51.344;6.550;2023-09-08T01:45:07;101256.88;;;18.60;100.00
75740;BME280;64357;51.344;6.550;2023-09-08T01:47:33;101258.09;;;18.54;100.00
75740;BME280;64357;51.344;6.550;2023-09-08T01:49:58;101251.13;;;18.41;100.00
75740;BME280;64357;51.344;6.550;2023-09-08T01:52:26;101246.50;;;18.37;100.00
75740;BME280;64357;51.344;6.550;2023-09-08T01:54:57;101252.13;;;18.31;100.00
75740;BME280;64357;51.344;6.550;2023-09-08T01:57:23;101240.78;;;18.29;100.00
75740;BME280;64357;51.344;6.550;2023-09-08T01:59:48;101248.81;;;18.22;100.00
75740;BME280;64357;51.344;6.550;2023-09-08T02:02:14;101241.28;;;18.14;100.00
75740;BME280;64357;51.344;6.550;2023-09-08T02:04:42;101212.06;;;18.15;100.00
75740;BME280;64357;51.344;6.550;2023-09-08T02:07:07;101244.34;;;18.31;100.00
75740;BME280;64357;51.344;6.550;2023-09-08T02:09:34;101241.31;;;18.25;100.00
75740;BME280;64357;51.344;6.550;2023-09-08T02:12:03;101245.44;;;18.11;100.00
75740;BME280;64357;51.344;6.550;2023-09-08T02:14:29;101231.38;;;18.08;100.00
75740;BME280;64357;51.344;6.550;2023-09-08T02:16:55;101241.19;;;18.12;100.00
75740;BME280;64357;51.344;6.550;2023-09-08T02:19:20;101248.03;;;18.23;100.00
75740;BME280;64357;51.344;6.550;2023-09-08T02:21:46;101237.44;;;18.08;100.00
75740;BME280;64357;51.344;6.550;2023-09-08T02:24:11;101232.75;;;18.15;100.00
75740;BME280;64357;51.344;6.550;2023-09-08T02:26:38;101231.38;;;18.08;100.00
75740;BME280;64357;51.344;6.550;2023-09-08T02:29:06;101224.97;;;18.03;100.00
75740;BME280;64357;51.344;6.550;2023-09-08T02:31:32;101232.16;;;17.95;100.00
75740;BME280;64357;51.344;6.550;2023-09-08T02:33:59;101240.22;;;18.00;100.00
75740;BME280;64357;51.344;6.550;2023-09-08T02:36:27;101235.81;;;17.87;100.00
75740;BME280;64357;51.344;6.550;2023-09-08T02:38:53;101244.72;;;17.91;100.00
75740;BME280;64357;51.344;6.550;2023-09-08T02:41:23;101240.75;;;17.84;100.00
75740;BME280;64357;51.344;6.550;2023-09-08T02:43:51;101248.88;;;17.89;100.00
75740;BME280;64357;51.344;6.550;2023-09-08T02:46:16;101238.28;;;17.85;100.00
75740;BME280;64357;51.344;6.550;2023-09-08T02:48:42;101240.66;;;17.82;100.00
75740;BME280;64357;51.344;6.550;2023-09-08T02:51:07;101245.94;;;17.84;100.00
75740;BME280;64357;51.344;6.550;2023-09-08T02:53:32;101243.47;;;17.85;100.00
75740;BME280;64357;51.344;6.550;2023-09-08T02:55:58;101243.66;;;17.77;100.00
75740;BME280;64357;51.344;6.550;2023-09-08T02:58:25;101249.47;;;17.74;100.00
75740;BME280;64357;51.344;6.550;2023-09-08T03:00:50;101239.31;;;17.66;100.00
75740;BME280;64357;51.344;6.550;2023-09-08T03:03:20;101249.50;;;17.64;100.00
75740;BME280;64357;51.344;6.550;2023-09-08T03:05:46;101233.91;;;17.63;100.00
75740;BME280;64357;51.344;6.550;2023-09-08T03:08:11;101229.75;;;17.65;100.00
75740;BME280;64357;51.344;6.550;2023-09-08T03:10:39;101232.31;;;17.65;100.00
75740;BME280;64357;51.344;6.550;2023-09-08T03:13:05;101241.13;;;17.67;100.00
75740;BME280;64357;51.344;6.550;2023-09-08T03:15:30;101238.53;;;17.67;100.00
75740;BME280;64357;51.344;6.550;2023-09-08T03:17:56;101227.00;;;17.73;100.00
75740;BME280;64357;51.344;6.550;2023-09-08T03:20:24;101229.81;;;18.10;100.00
75740;BME280;64357;51.344;6.550;2023-09-08T03:22:51;101221.53;;;18.26;100.00
75740;BME280;64357;51.344;6.550;2023-09-08T03:25:16;101220.41;;;18.57;100.00
75740;BME280;64357;51.344;6.550;2023-09-08T03:27:42;101220.41;;;18.81;100.00
75740;BME280;64357;51.344;6.550;2023-09-08T03:30:07;101223.59;;;18.88;100.00
75740;BME280;64357;51.344;6.550;2023-09-08T03:32:33;101224.78;;;18.94;100.00
75740;BME280;64357;51.344;6.550;2023-09-08T03:34:58;101219.63;;;18.82;100.00
75740;BME280;64357;51.344;6.550;2023-09-08T03:37:26;101216.50;;;18.74;100.00
75740;BME280;64357;51.344;6.550;2023-09-08T03:39:52;101224.16;;;18.84;100.00
75740;BME280;64357;51.344;6.550;2023-09-08T03:42:18;101215.81;;;18.88;100.00
75740;BME280;64357;51.344;6.550;2023-09-08T03:44:46;101216.38;;;18.96;100.00
75740;BME280;64357;51.344;6.550;2023-09-08T03:47:11;101212.44;;;18.89;100.00
75740;BME280;64357;51.344;6.550;2023-09-08T03:49:36;101226.81;;;18.98;100.00
75740;BME280;64357;51.344;6.550;2023-09-08T03:52:02;101214.66;;;18.97;100.00
75740;BME280;64357;51.344;6.550;2023-09-08T03:54:27;101221.88;;;19.01;100.00
75740;BME280;64357;51.344;6.550;2023-09-08T03:56:53;101220.75;;;18.97;100.00
75740;BME280;64357;51.344;6.550;2023-09-08T03:59:20;101221.09;;;19.02;100.00
75740;BME280;64357;51.344;6.550;2023-09-08T04:01:46;101225.69;;;19.06;100.00
75740;BME280;64357;51.344;6.550;2023-09-08T04:04:12;101223.66;;;19.02;100.00
75740;BME280;64357;51.344;6.550;2023-09-08T04:06:37;101219.28;;;19.01;100.00
75740;BME280;64357;51.344;6.550;2023-09-08T04:09:02;101226.25;;;19.02;100.00
75740;BME280;64357;51.344;6.550;2023-09-08T04:11:28;101223.44;;;18.99;100.00
75740;BME280;64357;51.344;6.550;2023-09-08T04:13:55;101231.91;;;18.96;100.00
75740;BME280;64357;51.344;6.550;2023-09-08T04:16:21;101227.38;;;18.94;100.00
75740;BME280;64357;51.344;6.550;2023-09-08T04:18:46;101226.47;;;18.93;100.00
75740;BME280;64357;51.344;6.550;2023-09-08T04:21:11;101231.66;;;18.93;100.00
75740;BME280;64357;51.344;6.550;2023-09-08T04:23:37;101236.75;;;18.91;100.00
75740;BME280;64357;51.344;6.550;2023-09-08T04:26:04;101228.97;;;18.91;100.00
75740;BME280;64357;51.344;6.550;2023-09-08T04:28:29;101233.81;;;18.87;100.00
75740;BME280;64357;51.344;6.550;2023-09-08T04:30:55;101228.31;;;18.82;100.00
75740;BME280;64357;51.344;6.550;2023-09-08T04:33:20;101221.66;;;18.62;100.00
75740;BME280;64357;51.344;6.550;2023-09-08T04:35:45;101222.38;;;18.72;100.00
75740;BME280;64357;51.344;6.550;2023-09-08T04:38:10;101230.47;;;18.76;100.00
75740;BME280;64357;51.344;6.550;2023-09-08T04:40:36;101230.47;;;18.76;100.00
75740;BME280;64357;51.344;6.550;2023-09-08T04:43:04;101230.66;;;18.79;100.00
75740;BME280;64357;51.344;6.550;2023-09-08T04:45:30;101228.97;;;18.80;100.00
75740;BME280;64357;51.344;6.550;2023-09-08T04:47:55;101227.38;;;18.82;100.00
75740;BME280;64357;51.344;6.550;2023-09-08T04:50:20;101230.78;;;18.81;100.00
75740;BME280;64357;51.344;6.550;2023-09-08T04:52:48;101235.84;;;18.79;100.00
75740;BME280;64357;51.344;6.550;2023-09-08T04:55:16;101224.25;;;18.74;100.00
75740;BME280;64357;51.344;6.550;2023-09-08T04:57:42;101231.38;;;18.77;100.00
75740;BME280;64357;51.344;6.550;2023-09-08T05:00:10;101225.41;;;18.78;100.00
75740;BME280;64357;51.344;6.550;2023-09-08T05:02:37;101233.38;;;18.81;100.00
75740;BME280;64357;51.344;6.550;2023-09-08T05:05:02;101225.72;;;18.82;100.00
75740;BME280;64357;51.344;6.550;2023-09-08T05:07:27;101230.91;;;18.82;100.00
75740;BME280;64357;51.344;6.550;2023-09-08T05:09:53;101221.31;;;18.81;100.00
75740;BME280;64357;51.344;6.550;2023-09-08T05:12:18;101222.13;;;18.80;100.00
75740;BME280;64357;51.344;6.550;2023-09-08T05:14:43;101226.50;;;18.81;100.00
75740;BME280;64357;51.344;6.550;2023-09-08T05:17:11;101229.78;;;18.79;100.00
75740;BME280;64357;51.344;6.550;2023-09-08T05:19:37;101228.78;;;18.77;100.00
75740;BME280;64357;51.344;6.550;2023-09-08T05:22:05;101234.84;;;18.77;100.00
75740;BME280;64357;51.344;6.550;2023-09-08T05:24:30;101240.94;;;18.78;100.00
75740;BME280;64357;51.344;6.550;2023-09-08T05:26:55;101233.81;;;18.75;100.00
75740;BME280;64357;51.344;6.550;2023-09-08T05:29:21;101241.94;;;18.80;100.00
75740;BME280;64357;51.344;6.550;2023-09-08T05:31:49;101237.66;;;18.80;100.00
75740;BME280;64357;51.344;6.550;2023-09-08T05:34:17;101236.09;;;18.82;100.00
75740;BME280;64357;51.344;6.550;2023-09-08T05:36:42;101238.09;;;18.86;100.00
75740;BME280;64357;51.344;6.550;2023-09-08T05:39:07;101238.09;;;18.86;100.00
75740;BME280;64357;51.344;6.550;2023-09-08T05:41:33;101242.59;;;18.89;100.00
75740;BME280;64357;51.344;6.550;2023-09-08T05:44:00;101247.19;;;18.93;100.00
75740;BME280;64357;51.344;6.550;2023-09-08T05:46:25;101244.75;;;18.95;100.00
75740;BME280;64357;51.344;6.550;2023-09-08T05:48:50;101246.44;;;18.94;100.00
75740;BME280;64357;51.344;6.550;2023-09-08T05:51:16;101242.59;;;19.01;100.00
75740;BME280;64357;51.344;6.550;2023-09-08T05:53:43;101244.59;;;19.05;99.94
75740;BME280;64357;51.344;6.550;2023-09-08T05:56:09;101250.09;;;19.09;99.32
75740;BME280;64357;51.344;6.550;2023-09-08T05:58:35;101249.31;;;19.10;98.98
75740;BME280;64357;51.344;6.550;2023-09-08T06:01:01;101255.81;;;19.17;98.30
75740;BME280;64357;51.344;6.550;2023-09-08T06:03:29;101254.16;;;19.17;98.07
75740;BME280;64357;51.344;6.550;2023-09-08T06:05:56;101253.69;;;19.23;97.66
75740;BME280;64357;51.344;6.550;2023-09-08T06:08:22;101256.28;;;19.23;97.23
75740;BME280;64357;51.344;6.550;2023-09-08T06:10:47;101259.66;;;19.22;97.39
75740;BME280;64357;51.344;6.550;2023-09-08T06:13:13;101253.81;;;19.25;96.95
75740;BME280;64357;51.344;6.550;2023-09-08T06:15:38;101251.66;;;19.31;96.38
75740;BME280;64357;51.344;6.550;2023-09-08T06:18:04;101253.66;;;19.35;96.61
75740;BME280;64357;51.344;6.550;2023-09-08T06:20:29;101246.47;;;19.31;96.45
75740;BME280;64357;51.344;6.550;2023-09-08T06:22:57;101252.19;;;19.38;95.84
75740;BME280;64357;51.344;6.550;2023-09-08T06:25:25;101250.00;;;19.44;95.24
75740;BME280;64357;51.344;6.550;2023-09-08T06:27:51;101255.28;;;19.46;95.34
75740;BME280;64357;51.344;6.550;2023-09-08T06:30:19;101253.38;;;19.55;95.01
75740;BME280;64357;51.344;6.550;2023-09-08T06:32:47;101256.31;;;19.60;94.77
75740;BME280;64357;51.344;6.550;2023-09-08T06:35:12;101253.81;;;19.61;94.63
75740;BME280;64357;51.344;6.550;2023-09-08T06:37:38;101247.84;;;19.62;93.83
75740;BME280;64357;51.344;6.550;2023-09-08T06:40:04;101250.06;;;19.69;93.97
75740;BME280;64357;51.344;6.550;2023-09-08T06:42:32;101258.91;;;19.85;93.82
75740;BME280;64357;51.344;6.550;2023-09-08T06:45:01;101253.63;;;19.83;93.42
75740;BME280;64357;51.344;6.550;2023-09-08T06:47:28;101253.34;;;19.92;92.77
75740;BME280;64357;51.344;6.550;2023-09-08T06:49:59;101249.28;;;19.95;92.63
75740;BME280;64357;51.344;6.550;2023-09-08T06:52:24;101264.47;;;20.16;92.00
75740;BME280;64357;51.344;6.550;2023-09-08T06:54:50;101260.41;;;20.19;91.55
75740;BME280;64357;51.344;6.550;2023-09-08T06:57:24;101258.00;;;20.22;91.30
75740;BME280;64357;51.344;6.550;2023-09-08T06:59:50;101251.44;;;20.28;90.60
75740;BME280;64357;51.344;6.550;2023-09-08T07:02:15;101252.66;;;20.33;90.33
75740;BME280;64357;51.344;6.550;2023-09-08T07:04:40;101257.84;;;20.33;90.53
75740;BME280;64357;51.344;6.550;2023-09-08T07:07:08;101264.34;;;20.39;89.60
75740;BME280;64357;51.344;6.550;2023-09-08T07:09:35;101268.00;;;20.55;89.33
75740;BME280;64357;51.344;6.550;2023-09-08T07:12:02;101267.59;;;20.62;88.16
75740;BME280;64357;51.344;6.550;2023-09-08T07:14:28;101263.09;;;20.72;87.66
75740;BME280;64357;51.344;6.550;2023-09-08T07:16:56;101265.13;;;20.76;87.20
75740;BME280;64357;51.344;6.550;2023-09-08T07:19:21;101267.59;;;20.88;86.60
75740;BME280;64357;51.344;6.550;2023-09-08T07:21:47;101272.38;;;20.95;86.04
75740;BME280;64357;51.344;6.550;2023-09-08T07:24:12;101260.09;;;20.93;85.53
75740;BME280;64357;51.344;6.550;2023-09-08T07:26:40;101279.09;;;21.05;84.87
75740;BME280;64357;51.344;6.550;2023-09-08T07:29:05;101279.25;;;21.21;84.40
75740;BME280;64357;51.344;6.550;2023-09-08T07:31:30;101267.88;;;21.19;83.44
75740;BME280;64357;51.344;6.550;2023-09-08T07:33:56;101280.84;;;21.33;83.57
75740;BME280;64357;51.344;6.550;2023-09-08T07:36:23;101276.25;;;21.42;82.99
75740;BME280;64357;51.344;6.550;2023-09-08T07:38:48;101270.56;;;21.62;81.99
75740;BME280;64357;51.344;6.550;2023-09-08T07:41:14;101276.81;;;21.79;81.78
75740;BME280;64357;51.344;6.550;2023-09-08T07:43:40;101273.97;;;21.89;80.54
75740;BME280;64357;51.344;6.550;2023-09-08T07:46:06;101270.13;;;21.97;80.08
75740;BME280;64357;51.344;6.550;2023-09-08T07:48:32;101278.69;;;22.09;79.62
75740;BME280;64357;51.344;6.550;2023-09-08T07:50:57;101273.91;;;22.02;79.22
75740;BME280;64357;51.344;6.550;2023-09-08T07:53:25;101283.75;;;22.21;78.63
75740;BME280;64357;51.344;6.550;2023-09-08T07:55:51;101276.75;;;22.20;78.56
75740;BME280;64357;51.344;6.550;2023-09-08T07:58:16;101274.69;;;22.29;77.85
75740;BME280;64357;51.344;6.550;2023-09-08T08:00:41;101270.56;;;22.33;77.88
75740;BME280;64357;51.344;6.550;2023-09-08T08:03:09;101275.50;;;22.58;76.93
75740;BME280;64357;51.344;6.550;2023-09-08T08:05:36;101267.25;;;22.65;76.39
75740;BME280;64357;51.344;6.550;2023-09-08T08:08:02;101274.84;;;22.62;76.42
75740;BME280;64357;51.344;6.550;2023-09-08T08:10:27;101265.97;;;22.73;75.07
75740;BME280;64357;51.344;6.550;2023-09-08T08:12:55;101264.03;;;22.85;74.54
75740;BME280;64357;51.344;6.550;2023-09-08T08:15:34;101271.53;;;22.94;73.21
75740;BME280;64357;51.344;6.550;2023-09-08T08:18:00;101262.34;;;22.86;73.15
75740;BME280;64357;51.344;6.550;2023-09-08T08:20:25;101269.00;;;22.96;72.71
75740;BME280;64357;51.344;6.550;2023-09-08T08:22:51;101280.94;;;23.07;72.05
75740;BME280;64357;51.344;6.550;2023-09-08T08:25:16;101276.00;;;23.11;72.10
75740;BME280;64357;51.344;6.550;2023-09-08T08:27:42;101270.56;;;23.23;71.71
75740;BME280;64357;51.344;6.550;2023-09-08T08:30:10;101265.41;;;23.25;71.01
75740;BME280;64357;51.344;6.550;2023-09-08T08:32:36;101265.13;;;23.35;71.43
75740;BME280;64357;51.344;6.550;2023-09-08T08:35:01;101256.88;;;23.44;71.12
75740;BME280;64357;51.344;6.550;2023-09-08T08:37:29;101258.66;;;23.45;70.12
75740;BME280;64357;51.344;6.550;2023-09-08T08:39:57;101259.19;;;23.54;69.67
75740;BME280;64357;51.344;6.550;2023-09-08T08:42:23;101266.88;;;23.67;69.97
75740;BME280;64357;51.344;6.550;2023-09-08T08:44:49;101261.97;;;23.73;69.43
75740;BME280;64357;51.344;6.550;2023-09-08T08:47:16;101258.41;;;23.87;69.31
75740;BME280;64357;51.344;6.550;2023-09-08T08:49:44;101259.41;;;24.24;67.60
75740;BME280;64357;51.344;6.550;2023-09-08T08:52:12;101268.19;;;24.26;67.70
75740;BME280;64357;51.344;6.550;2023-09-08T08:54:39;101263.94;;;24.44;66.04
75740;BME280;64357;51.344;6.550;2023-09-08T08:57:05;101262.34;;;24.82;65.36
75740;BME280;64357;51.344;6.550;2023-09-08T08:59:31;101264.59;;;25.47;63.01
75740;BME280;64357;51.344;6.550;2023-09-08T09:01:58;101270.75;;;25.86;61.37
75740;BME280;64357;51.344;6.550;2023-09-08T09:06:55;101275.91;;;26.86;57.09
75740;BME280;64357;51.344;6.550;2023-09-08T09:09:26;101273.69;;;26.97;55.85
75740;BME280;64357;51.344;6.550;2023-09-08T09:11:51;101260.72;;;26.56;57.60
75740;BME280;64357;51.344;6.550;2023-09-08T09:14:17;101256.47;;;26.81;56.94
75740;BME280;64357;51.344;6.550;2023-09-08T09:16:45;101266.06;;;28.18;52.70
75740;BME280;64357;51.344;6.550;2023-09-08T09:19:20;101278.25;;;28.16;52.03
75740;BME280;64357;51.344;6.550;2023-09-08T09:21:51;101280.50;;;27.81;52.93
75740;BME280;64357;51.344;6.550;2023-09-08T09:27:03;101274.47;;;31.02;43.81
75740;BME280;64357;51.344;6.550;2023-09-08T09:29:31;101278.19;;;29.19;47.67
75740;BME280;64357;51.344;6.550;2023-09-08T09:32:07;101277.41;;;30.44;45.69
75740;BME280;64357;51.344;6.550;2023-09-08T09:34:35;101279.06;;;30.40;44.17
75740;BME280;64357;51.344;6.550;2023-09-08T09:37:04;101269.19;;;31.42;42.81
75740;BME280;64357;51.344;6.550;2023-09-08T09:39:30;101281.44;;;32.26;40.02
75740;BME280;64357;51.344;6.550;2023-09-08T09:41:57;101275.94;;;32.63;39.60
75740;BME280;64357;51.344;6.550;2023-09-08T09:44:25;101278.50;;;32.59;40.12
75740;BME280;64357;51.344;6.550;2023-09-08T09:46:53;101269.72;;;32.13;40.72
75740;BME280;64357;51.344;6.550;2023-09-08T09:49:19;101263.84;;;30.30;43.78
75740;BME280;64357;51.344;6.550;2023-09-08T09:51:47;101275.84;;;31.24;41.42
75740;BME280;64357;51.344;6.550;2023-09-08T09:54:13;101278.59;;;30.57;42.80
75740;BME280;64357;51.344;6.550;2023-09-08T09:56:39;101269.69;;;30.53;43.02
75740;BME280;64357;51.344;6.550;2023-09-08T09:59:11;101276.63;;;30.15;44.17
75740;BME280;64357;51.344;6.550;2023-09-08T10:01:40;101271.72;;;29.97;44.11
75740;BME280;64357;51.344;6.550;2023-09-08T10:04:09;101266.28;;;30.56;44.09
75740;BME280;64357;51.344;6.550;2023-09-08T10:06:37;101262.75;;;30.55;43.58
75740;BME280;64357;51.344;6.550;2023-09-08T10:09:05;101261.06;;;30.59;43.87
75740;BME280;64357;51.344;6.550;2023-09-08T10:11:42;101266.44;;;30.29;44.97
75740;BME280;64357;51.344;6.550;2023-09-08T10:14:10;101263.66;;;30.92;43.50
75740;BME280;64357;51.344;6.550;2023-09-08T10:16:38;101268.03;;;30.57;44.54
75740;BME280;64357;51.344;6.550;2023-09-08T10:19:07;101275.69;;;31.57;41.93
75740;BME280;64357;51.344;6.550;2023-09-08T10:21:33;101270.78;;;30.96;43.78
75740;BME280;64357;51.344;6.550;2023-09-08T10:24:13;101268.06;;;31.73;42.62
75740;BME280;64357;51.344;6.550;2023-09-08T10:26:43;101270.66;;;31.27;42.31
75740;BME280;64357;51.344;6.550;2023-09-08T10:29:09;101264.25;;;30.80;44.07
75740;BME280;64357;51.344;6.550;2023-09-08T10:31:35;101253.66;;;31.18;42.17
75740;BME280;64357;51.344;6.550;2023-09-08T10:34:01;101259.19;;;31.27;42.23
75740;BME280;64357;51.344;6.550;2023-09-08T10:36:27;101264.88;;;31.47;42.29
75740;BME280;64357;51.344;6.550;2023-09-08T10:38:53;101265.34;;;32.62;39.14
75740;BME280;64357;51.344;6.550;2023-09-08T10:43:54;101264.78;;;34.18;35.96
75740;BME280;64357;51.344;6.550;2023-09-08T10:46:21;101267.88;;;32.54;38.10
75740;BME280;64357;51.344;6.550;2023-09-08T10:48:50;101253.53;;;31.95;38.83
75740;BME280;64357;51.344;6.550;2023-09-08T10:51:17;101262.75;;;32.15;38.40
75740;BME280;64357;51.344;6.550;2023-09-08T10:53:46;101256.00;;;33.46;37.11
75740;BME280;64357;51.344;6.550;2023-09-08T10:56:12;101258.88;;;34.46;35.04
75740;BME280;64357;51.344;6.550;2023-09-08T10:58:42;101265.75;;;35.46;32.44
75740;BME280;64357;51.344;6.550;2023-09-08T11:01:19;101268.25;;;35.23;33.28
75740;BME280;64357;51.344;6.550;2023-09-08T11:03:48;101266.81;;;35.99;31.61
75740;BME280;64357;51.344;6.550;2023-09-08T11:06:18;101267.09;;;34.80;33.40
75740;BME280;64357;51.344;6.550;2023-09-08T11:08:45;101257.16;;;34.52;33.93
75740;BME280;64357;51.344;6.550;2023-09-08T11:11:11;101261.13;;;35.12;33.48
75740;BME280;64357;51.344;6.550;2023-09-08T11:13:38;101266.56;;;35.41;32.63
75740;BME280;64357;51.344;6.550;2023-09-08T11:16:05;101262.44;;;34.52;33.83
75740;BME280;64357;51.344;6.550;2023-09-08T11:18:31;101266.34;;;34.96;33.68
75740;BME280;64357;51.344;6.550;2023-09-08T11:21:00;101267.34;;;35.17;32.81
75740;BME280;64357;51.344;6.550;2023-09-08T11:23:27;101260.88;;;34.77;33.24
75740;BME280;64357;51.344;6.550;2023-09-08T11:25:56;101261.44;;;34.40;34.18
75740;BME280;64357;51.344;6.550;2023-09-08T11:28:24;101254.44;;;33.63;35.68
75740;BME280;64357;51.344;6.550;2023-09-08T11:30:54;101254.16;;;33.40;35.52
75740;BME280;64357;51.344;6.550;2023-09-08T11:33:22;101249.31;;;33.09;35.81
75740;BME280;64357;51.344;6.550;2023-09-08T11:35:51;101249.34;;;34.71;32.99
75740;BME280;64357;51.344;6.550;2023-09-08T11:38:27;101249.72;;;33.39;35.03
75740;BME280;64357;51.344;6.550;2023-09-08T11:40:57;101250.16;;;33.76;34.25
75740;BME280;64357;51.344;6.550;2023-09-08T11:43:23;101247.13;;;32.83;36.41
75740;BME280;64357;51.344;6.550;2023-09-08T11:45:48;101245.16;;;33.99;35.00
75740;BME280;64357;51.344;6.550;2023-09-08T11:48:15;101243.16;;;33.11;35.04
75740;BME280;64357;51.344;6.550;2023-09-08T11:50:41;101235.03;;;33.64;33.67
75740;BME280;64357;51.344;6.550;2023-09-08T11:53:07;101242.06;;;34.43;32.99
75740;BME280;64357;51.344;6.550;2023-09-08T11:55:33;101237.03;;;33.84;33.68
75740;BME280;64357;51.344;6.550;2023-09-08T11:57:59;101229.66;;;32.93;34.97
75740;BME280;64357;51.344;6.550;2023-09-08T12:00:30;101228.06;;;33.73;34.11
75740;BME280;64357;51.344;6.550;2023-09-08T12:02:56;101231.00;;;33.26;34.59
75740;BME280;64357;51.344;6.550;2023-09-08T12:05:36;101228.66;;;34.35;33.16
75740;BME280;64357;51.344;6.550;2023-09-08T12:08:04;101230.75;;;33.77;34.31
75740;BME280;64357;51.344;6.550;2023-09-08T12:10:41;101228.66;;;34.31;33.34
75740;BME280;64357;51.344;6.550;2023-09-08T12:13:07;101228.53;;;35.43;31.88
75740;BME280;64357;51.344;6.550;2023-09-08T12:15:39;101223.69;;;34.75;32.68
75740;BME280;64357;51.344;6.550;2023-09-08T12:18:10;101222.81;;;34.73;32.98
75740;BME280;64357;51.344;6.550;2023-09-08T12:20:37;101225.28;;;33.60;34.96
75740;BME280;64357;51.344;6.550;2023-09-08T12:23:14;101227.41;;;32.61;36.26
75740;BME280;64357;51.344;6.550;2023-09-08T12:25:51;101222.69;;;32.97;35.98
75740;BME280;64357;51.344;6.550;2023-09-08T12:28:19;101211.34;;;33.81;34.98
75740;BME280;64357;51.344;6.550;2023-09-08T12:30:45;101226.25;;;32.44;37.43
75740;BME280;64357;51.344;6.550;2023-09-08T12:33:10;101220.66;;;32.83;36.43
75740;BME280;64357;51.344;6.550;2023-09-08T12:35:36;101224.13;;;34.19;34.55
75740;BME280;64357;51.344;6.550;2023-09-08T12:38:03;101217.81;;;34.05;34.10
75740;BME280;64357;51.344;6.550;2023-09-08T12:40:33;101221.66;;;34.39;33.85
75740;BME280;64357;51.344;6.550;2023-09-08T12:42:59;101210.69;;;35.15;32.35
75740;BME280;64357;51.344;6.550;2023-09-08T12:45:26;101220.59;;;35.49;31.42
75740;BME280;64357;51.344;6.550;2023-09-08T12:47:52;101223.94;;;35.12;31.88
75740;BME280;64357;51.344;6.550;2023-09-08T12:50:17;101215.94;;;35.04;32.12
75740;BME280;64357;51.344;6.550;2023-09-08T12:52:48;101214.81;;;34.70;32.39
75740;BME280;64357;51.344;6.550;2023-09-08T12:55:14;101209.13;;;34.24;33.67
75740;BME280;64357;51.344;6.550;2023-09-08T12:57:41;101219.97;;;34.47;32.72